Pythagoras — C6ZO4 — position and weather

sailwx.info

Track history (hours):
 
Tides and Currents Weather Stations Pressure Air Temp Water Temp Dewpoint Dewpoint Depression Visibility Wind Speed Wind Dir Waves Ship Positions

Pythagoras

Last reported at 2017-May-08 06:26 UTC. Time now 2017-May-26 05:43 UTC.
Position S 29°36' E 032°02'.
Warning: this ship's position is 17 days out of date.

Length 190 m; draft 11.1 m.

Type: Cargo ship. MMSI: 311061300.

Date/timePositionNaut miles runAvg speedWind from/ knotsBaromVisibWave heightAir tempDewpointWater temp
2017-May-08 06:26S 29°36' E 032°02'511.0
2017-May-08 06:00S 29°37' E 031°57'611.4
2017-May-08 05:30S 29°39' E 031°51'611.5
2017-May-08 05:00S 29°40' E 031°44'611.3
2017-May-08 04:31S 29°42' E 031°38'611.7
2017-May-08 04:00S 29°44' E 031°32'713.6
2017-May-08 03:30S 29°45' E 031°24'713.5
2017-May-08 03:00S 29°48' E 031°17'612.6
2017-May-08 02:30S 29°49' E 031°10'510.7
2017-May-08 02:00S 29°51' E 031°04'2 4.0
2017-May-08 01:30S 29°52' E 031°02'0 0.2
2017-May-08 00:58S 29°52' E 031°02'0 0.0
2017-May-08 00:28S 29°52' E 031°02'0 0.0
2017-May-07 23:58S 29°52' E 031°02'0 0.0
2017-May-07 23:28S 29°52' E 031°02'0 0.0
2017-May-07 22:58S 29°52' E 031°02'0 0.0
2017-May-07 22:28S 29°52' E 031°02'0 0.0
2017-May-07 21:58S 29°52' E 031°02'0 0.0
2017-May-07 21:25S 29°52' E 031°02'0 0.0
2017-May-07 20:58S 29°52' E 031°02'0 0.0
2017-May-07 20:28S 29°52' E 031°02'0 0.0
2017-May-07 19:58S 29°52' E 031°02'0 0.0
2017-May-07 19:25S 29°52' E 031°02'0 0.0
2017-May-07 18:58S 29°52' E 031°02'0 0.0
2017-May-07 18:28S 29°52' E 031°02'0 0.5
2017-May-07 18:01S 29°52' E 031°02'3 5.9
2017-May-07 17:31S 29°51' E 031°05'2 3.7
2017-May-07 17:00S 29°49' E 031°06'1 1.9
2017-May-07 16:30S 29°49' E 031°07'4 7.6
2017-May-07 16:01S 29°50' E 031°11'3 6.1
2017-May-07 15:31S 29°53' E 031°10'1 2.8
2017-May-07 15:01S 29°54' E 031°08'2 4.0
2017-May-07 14:31S 29°55' E 031°07'9 8.7
2017-May-07 13:31S 30°03' E 031°03'713.2
2017-May-07 13:00S 30°09' E 030°59'714.8
2017-May-07 12:30S 30°15' E 030°54'714.4
2017-May-07 12:00S 30°21' E 030°50'  
Track history (hours):
 
Tides and Currents Weather Stations Pressure Air Temp Water Temp Dewpoint Dewpoint Depression Visibility Wind Speed Wind Dir Waves Ship Positions

Pythagoras

Last reported at 2017-May-08 06:26 UTC. Time now 2017-May-26 05:43 UTC.
Position S 29°36' E 032°02'.
Warning: this ship's position is 17 days out of date.

Length 190 m; draft 11.1 m.

Type: Cargo ship. MMSI: 311061300.

Date/timePositionNaut miles runAvg speedWind from/ knotsBaromVisibWave heightAir tempDewpointWater temp
2017-May-08 06:26S 29°36' E 032°02'511.0
2017-May-08 06:00S 29°37' E 031°57'611.4
2017-May-08 05:30S 29°39' E 031°51'611.5
2017-May-08 05:00S 29°40' E 031°44'611.3
2017-May-08 04:31S 29°42' E 031°38'611.7
2017-May-08 04:00S 29°44' E 031°32'713.6
2017-May-08 03:30S 29°45' E 031°24'713.5
2017-May-08 03:00S 29°48' E 031°17'612.6
2017-May-08 02:30S 29°49' E 031°10'510.7
2017-May-08 02:00S 29°51' E 031°04'2 4.0
2017-May-08 01:30S 29°52' E 031°02'0 0.2
2017-May-08 00:58S 29°52' E 031°02'0 0.0
2017-May-08 00:28S 29°52' E 031°02'0 0.0
2017-May-07 23:58S 29°52' E 031°02'0 0.0
2017-May-07 23:28S 29°52' E 031°02'0 0.0
2017-May-07 22:58S 29°52' E 031°02'0 0.0
2017-May-07 22:28S 29°52' E 031°02'0 0.0
2017-May-07 21:58S 29°52' E 031°02'0 0.0
2017-May-07 21:25S 29°52' E 031°02'0 0.0
2017-May-07 20:58S 29°52' E 031°02'0 0.0
2017-May-07 20:28S 29°52' E 031°02'0 0.0
2017-May-07 19:58S 29°52' E 031°02'0 0.0
2017-May-07 19:25S 29°52' E 031°02'0 0.0
2017-May-07 18:58S 29°52' E 031°02'0 0.0
2017-May-07 18:28S 29°52' E 031°02'0 0.5
2017-May-07 18:01S 29°52' E 031°02'3 5.9
2017-May-07 17:31S 29°51' E 031°05'2 3.7
2017-May-07 17:00S 29°49' E 031°06'1 1.9
2017-May-07 16:30S 29°49' E 031°07'4 7.6
2017-May-07 16:01S 29°50' E 031°11'3 6.1
2017-May-07 15:31S 29°53' E 031°10'1 2.8
2017-May-07 15:01S 29°54' E 031°08'2 4.0
2017-May-07 14:31S 29°55' E 031°07'9 8.7
2017-May-07 13:31S 30°03' E 031°03'713.2
2017-May-07 13:00S 30°09' E 030°59'714.8
2017-May-07 12:30S 30°15' E 030°54'714.4
2017-May-07 12:00S 30°21' E 030°50'  

Dump ship's entire track history